sensor_id;sensor_type;location;lat;lon;timestamp;P1;durP1;ratioP1;P2;durP2;ratioP2
20229;SDS011;12195;55.790;37.572;2023-03-11T00:02:17;5.75;;;3.55;;
20229;SDS011;12195;55.790;37.572;2023-03-11T00:04:49;5.95;;;3.45;;
20229;SDS011;12195;55.790;37.572;2023-03-11T00:07:22;5.45;;;3.27;;
20229;SDS011;12195;55.790;37.572;2023-03-11T00:09:54;7.67;;;3.50;;
20229;SDS011;12195;55.790;37.572;2023-03-11T00:12:26;6.70;;;3.12;;
20229;SDS011;12195;55.790;37.572;2023-03-11T00:14:59;6.60;;;3.33;;
20229;SDS011;12195;55.790;37.572;2023-03-11T00:17:31;4.90;;;3.45;;
20229;SDS011;12195;55.790;37.572;2023-03-11T00:20:03;5.42;;;3.45;;
20229;SDS011;12195;55.790;37.572;2023-03-11T00:22:36;5.37;;;2.83;;
20229;SDS011;12195;55.790;37.572;2023-03-11T00:25:09;6.05;;;3.30;;
20229;SDS011;12195;55.790;37.572;2023-03-11T00:27:42;5.25;;;3.10;;
20229;SDS011;12195;55.790;37.572;2023-03-11T00:30:15;5.60;;;3.30;;
20229;SDS011;12195;55.790;37.572;2023-03-11T00:32:48;9.65;;;4.15;;
20229;SDS011;12195;55.790;37.572;2023-03-11T00:35:23;8.08;;;3.52;;
20229;SDS011;12195;55.790;37.572;2023-03-11T00:37:58;7.85;;;3.65;;
20229;SDS011;12195;55.790;37.572;2023-03-11T00:40:33;4.85;;;2.72;;
20229;SDS011;12195;55.790;37.572;2023-03-11T00:43:06;4.37;;;2.47;;
20229;SDS011;12195;55.790;37.572;2023-03-11T00:45:38;4.78;;;3.20;;
20229;SDS011;12195;55.790;37.572;2023-03-11T00:48:12;10.48;;;4.30;;
20229;SDS011;12195;55.790;37.572;2023-03-11T00:50:45;4.40;;;2.83;;
20229;SDS011;12195;55.790;37.572;2023-03-11T00:53:17;5.62;;;3.00;;
20229;SDS011;12195;55.790;37.572;2023-03-11T00:55:49;6.05;;;3.33;;
20229;SDS011;12195;55.790;37.572;2023-03-11T00:58:21;7.78;;;3.55;;
20229;SDS011;12195;55.790;37.572;2023-03-11T01:00:56;7.40;;;3.02;;
20229;SDS011;12195;55.790;37.572;2023-03-11T01:03:30;7.65;;;3.45;;
20229;SDS011;12195;55.790;37.572;2023-03-11T01:06:03;5.92;;;3.20;;
20229;SDS011;12195;55.790;37.572;2023-03-11T01:08:35;7.05;;;3.33;;
20229;SDS011;12195;55.790;37.572;2023-03-11T01:11:07;5.55;;;3.52;;
20229;SDS011;12195;55.790;37.572;2023-03-11T01:13:40;5.58;;;2.95;;
20229;SDS011;12195;55.790;37.572;2023-03-11T01:16:12;5.22;;;3.10;;
20229;SDS011;12195;55.790;37.572;2023-03-11T01:18:44;5.05;;;3.00;;
20229;SDS011;12195;55.790;37.572;2023-03-11T01:21:16;5.97;;;3.87;;
20229;SDS011;12195;55.790;37.572;2023-03-11T01:23:48;6.00;;;3.37;;
20229;SDS011;12195;55.790;37.572;2023-03-11T01:26:33;5.80;;;3.33;;
20229;SDS011;12195;55.790;37.572;2023-03-11T01:29:05;9.60;;;3.87;;
20229;SDS011;12195;55.790;37.572;2023-03-11T01:31:37;7.15;;;3.75;;
20229;SDS011;12195;55.790;37.572;2023-03-11T01:34:10;6.95;;;3.60;;
20229;SDS011;12195;55.790;37.572;2023-03-11T01:36:42;6.95;;;3.77;;
20229;SDS011;12195;55.790;37.572;2023-03-11T01:39:14;7.47;;;3.83;;
20229;SDS011;12195;55.790;37.572;2023-03-11T01:41:46;9.43;;;4.15;;
20229;SDS011;12195;55.790;37.572;2023-03-11T01:44:18;7.97;;;3.92;;
20229;SDS011;12195;55.790;37.572;2023-03-11T01:49:29;6.25;;;3.80;;
20229;SDS011;12195;55.790;37.572;2023-03-11T01:52:02;8.55;;;4.47;;
20229;SDS011;12195;55.790;37.572;2023-03-11T01:54:39;8.58;;;4.47;;
20229;SDS011;12195;55.790;37.572;2023-03-11T01:57:12;10.25;;;4.67;;
20229;SDS011;12195;55.790;37.572;2023-03-11T01:59:49;11.08;;;4.60;;
20229;SDS011;12195;55.790;37.572;2023-03-11T02:05:01;9.60;;;4.65;;
20229;SDS011;12195;55.790;37.572;2023-03-11T02:07:33;8.97;;;4.73;;
20229;SDS011;12195;55.790;37.572;2023-03-11T02:10:08;9.68;;;4.50;;
20229;SDS011;12195;55.790;37.572;2023-03-11T02:12:42;7.67;;;4.65;;
20229;SDS011;12195;55.790;37.572;2023-03-11T02:15:18;7.97;;;4.47;;
20229;SDS011;12195;55.790;37.572;2023-03-11T02:17:51;8.50;;;4.55;;
20229;SDS011;12195;55.790;37.572;2023-03-11T02:23:17;7.20;;;4.17;;
20229;SDS011;12195;55.790;37.572;2023-03-11T02:28:45;33.70;;;6.97;;
20229;SDS011;12195;55.790;37.572;2023-03-11T02:31:20;5.45;;;3.02;;
20229;SDS011;12195;55.790;37.572;2023-03-11T02:33:54;9.40;;;4.75;;
20229;SDS011;12195;55.790;37.572;2023-03-11T02:36:33;4.12;;;2.90;;
20229;SDS011;12195;55.790;37.572;2023-03-11T02:39:11;9.85;;;4.58;;
20229;SDS011;12195;55.790;37.572;2023-03-11T02:41:45;8.18;;;4.28;;
20229;SDS011;12195;55.790;37.572;2023-03-11T02:44:17;8.45;;;3.98;;
20229;SDS011;12195;55.790;37.572;2023-03-11T02:46:49;10.50;;;3.72;;
20229;SDS011;12195;55.790;37.572;2023-03-11T02:49:23;7.15;;;3.77;;
20229;SDS011;12195;55.790;37.572;2023-03-11T02:51:55;8.13;;;4.30;;
20229;SDS011;12195;55.790;37.572;2023-03-11T02:54:29;6.97;;;4.33;;
20229;SDS011;12195;55.790;37.572;2023-03-11T02:57:01;7.60;;;4.35;;
20229;SDS011;12195;55.790;37.572;2023-03-11T02:59:34;6.83;;;3.98;;
20229;SDS011;12195;55.790;37.572;2023-03-11T03:02:06;6.25;;;3.92;;
20229;SDS011;12195;55.790;37.572;2023-03-11T03:04:39;8.75;;;4.53;;
20229;SDS011;12195;55.790;37.572;2023-03-11T03:07:12;5.78;;;3.67;;
20229;SDS011;12195;55.790;37.572;2023-03-11T03:09:44;8.98;;;4.15;;
20229;SDS011;12195;55.790;37.572;2023-03-11T03:12:16;8.73;;;4.47;;
20229;SDS011;12195;55.790;37.572;2023-03-11T03:14:49;9.40;;;5.07;;
20229;SDS011;12195;55.790;37.572;2023-03-11T03:17:22;10.63;;;4.08;;
20229;SDS011;12195;55.790;37.572;2023-03-11T03:19:55;10.38;;;5.33;;
20229;SDS011;12195;55.790;37.572;2023-03-11T03:22:29;13.80;;;5.87;;
20229;SDS011;12195;55.790;37.572;2023-03-11T03:25:01;10.40;;;5.35;;
20229;SDS011;12195;55.790;37.572;2023-03-11T03:27:34;14.98;;;6.50;;
20229;SDS011;12195;55.790;37.572;2023-03-11T03:30:07;10.63;;;5.80;;
20229;SDS011;12195;55.790;37.572;2023-03-11T03:32:40;11.05;;;6.15;;
20229;SDS011;12195;55.790;37.572;2023-03-11T03:35:14;12.58;;;6.05;;
20229;SDS011;12195;55.790;37.572;2023-03-11T03:37:48;10.95;;;6.28;;
20229;SDS011;12195;55.790;37.572;2023-03-11T03:40:22;14.10;;;6.12;;
20229;SDS011;12195;55.790;37.572;2023-03-11T03:43:11;13.10;;;6.92;;
20229;SDS011;12195;55.790;37.572;2023-03-11T03:45:53;17.10;;;6.35;;
20229;SDS011;12195;55.790;37.572;2023-03-11T03:48:28;13.93;;;6.58;;
20229;SDS011;12195;55.790;37.572;2023-03-11T03:51:02;10.00;;;5.92;;
20229;SDS011;12195;55.790;37.572;2023-03-11T03:53:40;11.18;;;5.87;;
20229;SDS011;12195;55.790;37.572;2023-03-11T03:56:13;12.00;;;6.67;;
20229;SDS011;12195;55.790;37.572;2023-03-11T03:58:47;12.80;;;6.83;;
20229;SDS011;12195;55.790;37.572;2023-03-11T04:01:20;14.70;;;6.37;;
20229;SDS011;12195;55.790;37.572;2023-03-11T04:03:52;11.93;;;6.62;;
20229;SDS011;12195;55.790;37.572;2023-03-11T04:06:26;13.55;;;7.60;;
20229;SDS011;12195;55.790;37.572;2023-03-11T04:09:00;10.45;;;5.40;;
20229;SDS011;12195;55.790;37.572;2023-03-11T04:11:35;12.88;;;7.30;;
20229;SDS011;12195;55.790;37.572;2023-03-11T04:14:07;14.90;;;8.18;;
20229;SDS011;12195;55.790;37.572;2023-03-11T04:16:41;11.20;;;6.90;;
20229;SDS011;12195;55.790;37.572;2023-03-11T04:19:15;14.15;;;7.70;;
20229;SDS011;12195;55.790;37.572;2023-03-11T04:21:47;14.98;;;7.58;;
20229;SDS011;12195;55.790;37.572;2023-03-11T04:24:21;11.88;;;7.10;;
20229;SDS011;12195;55.790;37.572;2023-03-11T04:26:54;12.75;;;7.60;;
20229;SDS011;12195;55.790;37.572;2023-03-11T04:29:26;9.60;;;4.55;;
20229;SDS011;12195;55.790;37.572;2023-03-11T04:31:59;12.82;;;6.85;;
20229;SDS011;12195;55.790;37.572;2023-03-11T04:34:31;15.88;;;8.20;;
20229;SDS011;12195;55.790;37.572;2023-03-11T04:37:03;15.00;;;8.90;;
20229;SDS011;12195;55.790;37.572;2023-03-11T04:39:36;5.97;;;4.28;;
20229;SDS011;12195;55.790;37.572;2023-03-11T04:42:09;17.30;;;9.65;;
20229;SDS011;12195;55.790;37.572;2023-03-11T04:44:43;18.37;;;10.30;;
20229;SDS011;12195;55.790;37.572;2023-03-11T04:47:16;12.10;;;7.12;;
20229;SDS011;12195;55.790;37.572;2023-03-11T04:49:49;22.13;;;10.00;;
20229;SDS011;12195;55.790;37.572;2023-03-11T04:52:21;20.95;;;10.58;;
20229;SDS011;12195;55.790;37.572;2023-03-11T04:54:54;15.20;;;9.15;;
20229;SDS011;12195;55.790;37.572;2023-03-11T04:57:26;20.62;;;8.23;;
20229;SDS011;12195;55.790;37.572;2023-03-11T04:59:58;24.52;;;10.35;;
20229;SDS011;12195;55.790;37.572;2023-03-11T05:02:32;21.50;;;10.38;;
20229;SDS011;12195;55.790;37.572;2023-03-11T05:05:04;17.02;;;9.10;;
20229;SDS011;12195;55.790;37.572;2023-03-11T05:07:39;16.80;;;8.63;;
20229;SDS011;12195;55.790;37.572;2023-03-11T05:10:12;10.78;;;6.05;;
20229;SDS011;12195;55.790;37.572;2023-03-11T05:12:48;17.42;;;8.78;;
20229;SDS011;12195;55.790;37.572;2023-03-11T05:15:21;13.40;;;7.83;;
20229;SDS011;12195;55.790;37.572;2023-03-11T05:17:53;11.75;;;6.95;;
20229;SDS011;12195;55.790;37.572;2023-03-11T05:20:26;14.55;;;6.30;;
20229;SDS011;12195;55.790;37.572;2023-03-11T05:22:58;11.93;;;6.60;;
20229;SDS011;12195;55.790;37.572;2023-03-11T05:25:31;10.95;;;6.58;;
20229;SDS011;12195;55.790;37.572;2023-03-11T05:28:04;13.37;;;7.00;;
20229;SDS011;12195;55.790;37.572;2023-03-11T05:33:10;13.08;;;7.40;;
20229;SDS011;12195;55.790;37.572;2023-03-11T05:35:42;13.98;;;6.70;;
20229;SDS011;12195;55.790;37.572;2023-03-11T05:38:15;12.05;;;6.70;;
20229;SDS011;12195;55.790;37.572;2023-03-11T05:40:47;17.15;;;6.50;;
20229;SDS011;12195;55.790;37.572;2023-03-11T05:43:20;12.78;;;6.17;;
20229;SDS011;12195;55.790;37.572;2023-03-11T05:45:53;14.85;;;8.03;;
20229;SDS011;12195;55.790;37.572;2023-03-11T05:48:25;16.45;;;7.65;;
20229;SDS011;12195;55.790;37.572;2023-03-11T05:50:58;15.48;;;8.70;;
20229;SDS011;12195;55.790;37.572;2023-03-11T05:53:31;13.60;;;6.87;;
20229;SDS011;12195;55.790;37.572;2023-03-11T05:56:03;19.73;;;9.08;;
20229;SDS011;12195;55.790;37.572;2023-03-11T05:58:36;23.80;;;9.25;;
20229;SDS011;12195;55.790;37.572;2023-03-11T06:01:09;15.85;;;7.30;;
20229;SDS011;12195;55.790;37.572;2023-03-11T06:03:43;19.12;;;8.03;;
20229;SDS011;12195;55.790;37.572;2023-03-11T06:06:16;21.07;;;8.30;;
20229;SDS011;12195;55.790;37.572;2023-03-11T06:08:49;13.97;;;8.63;;
20229;SDS011;12195;55.790;37.572;2023-03-11T06:11:22;20.45;;;8.60;;
20229;SDS011;12195;55.790;37.572;2023-03-11T06:16:28;12.05;;;6.35;;
20229;SDS011;12195;55.790;37.572;2023-03-11T06:21:36;18.40;;;7.87;;
20229;SDS011;12195;55.790;37.572;2023-03-11T06:24:08;18.35;;;8.58;;
20229;SDS011;12195;55.790;37.572;2023-03-11T06:26:40;10.72;;;6.15;;
20229;SDS011;12195;55.790;37.572;2023-03-11T06:29:14;18.87;;;7.40;;
20229;SDS011;12195;55.790;37.572;2023-03-11T06:31:46;16.48;;;6.62;;
20229;SDS011;12195;55.790;37.572;2023-03-11T06:34:18;14.03;;;7.35;;
20229;SDS011;12195;55.790;37.572;2023-03-11T06:36:52;13.65;;;5.65;;
20229;SDS011;12195;55.790;37.572;2023-03-11T06:39:24;12.20;;;4.37;;
20229;SDS011;12195;55.790;37.572;2023-03-11T06:41:57;12.60;;;5.67;;
20229;SDS011;12195;55.790;37.572;2023-03-11T06:44:29;4.78;;;3.25;;
20229;SDS011;12195;55.790;37.572;2023-03-11T06:47:02;12.93;;;5.87;;
20229;SDS011;12195;55.790;37.572;2023-03-11T06:49:35;6.72;;;4.30;;
20229;SDS011;12195;55.790;37.572;2023-03-11T06:52:09;12.55;;;5.95;;
20229;SDS011;12195;55.790;37.572;2023-03-11T06:54:41;9.98;;;6.33;;
20229;SDS011;12195;55.790;37.572;2023-03-11T06:57:13;10.13;;;5.80;;
20229;SDS011;12195;55.790;37.572;2023-03-11T06:59:47;6.22;;;3.98;;
20229;SDS011;12195;55.790;37.572;2023-03-11T07:02:19;20.97;;;6.78;;
20229;SDS011;12195;55.790;37.572;2023-03-11T07:04:52;13.25;;;5.50;;
20229;SDS011;12195;55.790;37.572;2023-03-11T07:07:25;9.95;;;5.90;;
20229;SDS011;12195;55.790;37.572;2023-03-11T07:09:57;9.45;;;5.35;;
20229;SDS011;12195;55.790;37.572;2023-03-11T07:12:31;10.00;;;5.67;;
20229;SDS011;12195;55.790;37.572;2023-03-11T07:15:04;9.70;;;5.50;;
20229;SDS011;12195;55.790;37.572;2023-03-11T07:20:09;9.63;;;5.70;;
20229;SDS011;12195;55.790;37.572;2023-03-11T07:22:42;7.58;;;5.40;;
20229;SDS011;12195;55.790;37.572;2023-03-11T07:25:14;11.80;;;6.17;;
20229;SDS011;12195;55.790;37.572;2023-03-11T07:27:47;13.55;;;5.70;;
20229;SDS011;12195;55.790;37.572;2023-03-11T07:30:19;9.08;;;5.17;;
20229;SDS011;12195;55.790;37.572;2023-03-11T07:32:51;7.25;;;4.42;;
20229;SDS011;12195;55.790;37.572;2023-03-11T07:35:24;8.63;;;4.97;;
20229;SDS011;12195;55.790;37.572;2023-03-11T07:37:57;8.98;;;4.97;;
20229;SDS011;12195;55.790;37.572;2023-03-11T07:40:29;14.63;;;5.37;;
20229;SDS011;12195;55.790;37.572;2023-03-11T07:43:02;9.93;;;5.97;;
20229;SDS011;12195;55.790;37.572;2023-03-11T07:45:34;10.28;;;5.53;;
20229;SDS011;12195;55.790;37.572;2023-03-11T07:48:06;8.65;;;3.55;;
20229;SDS011;12195;55.790;37.572;2023-03-11T07:50:39;10.58;;;4.47;;
20229;SDS011;12195;55.790;37.572;2023-03-11T07:53:11;8.58;;;4.85;;
20229;SDS011;12195;55.790;37.572;2023-03-11T07:55:44;15.63;;;5.20;;
20229;SDS011;12195;55.790;37.572;2023-03-11T07:58:17;9.90;;;4.15;;
20229;SDS011;12195;55.790;37.572;2023-03-11T08:00:49;15.68;;;5.78;;
20229;SDS011;12195;55.790;37.572;2023-03-11T08:03:22;9.00;;;4.78;;
20229;SDS011;12195;55.790;37.572;2023-03-11T08:05:55;11.90;;;5.73;;
20229;SDS011;12195;55.790;37.572;2023-03-11T08:08:27;10.15;;;4.92;;
20229;SDS011;12195;55.790;37.572;2023-03-11T08:11:01;15.78;;;5.58;;
20229;SDS011;12195;55.790;37.572;2023-03-11T08:13:34;11.55;;;5.55;;
20229;SDS011;12195;55.790;37.572;2023-03-11T08:16:07;24.87;;;6.03;;
20229;SDS011;12195;55.790;37.572;2023-03-11T08:18:42;13.40;;;5.65;;
20229;SDS011;12195;55.790;37.572;2023-03-11T08:21:17;15.20;;;5.97;;
20229;SDS011;12195;55.790;37.572;2023-03-11T08:23:52;21.45;;;6.15;;
20229;SDS011;12195;55.790;37.572;2023-03-11T08:26:27;20.70;;;6.15;;
20229;SDS011;12195;55.790;37.572;2023-03-11T08:29:00;18.83;;;5.93;;
20229;SDS011;12195;55.790;37.572;2023-03-11T08:31:33;11.95;;;4.53;;
20229;SDS011;12195;55.790;37.572;2023-03-11T08:34:06;14.35;;;4.75;;
20229;SDS011;12195;55.790;37.572;2023-03-11T08:36:40;19.77;;;5.35;;
20229;SDS011;12195;55.790;37.572;2023-03-11T08:39:12;30.10;;;6.40;;
20229;SDS011;12195;55.790;37.572;2023-03-11T08:41:45;13.10;;;5.15;;
20229;SDS011;12195;55.790;37.572;2023-03-11T08:44:18;21.70;;;5.72;;
20229;SDS011;12195;55.790;37.572;2023-03-11T08:46:50;22.15;;;4.83;;
20229;SDS011;12195;55.790;37.572;2023-03-11T08:49:22;19.32;;;5.85;;
20229;SDS011;12195;55.790;37.572;2023-03-11T08:51:54;29.45;;;5.80;;
20229;SDS011;12195;55.790;37.572;2023-03-11T08:54:26;21.62;;;5.47;;
20229;SDS011;12195;55.790;37.572;2023-03-11T08:57:00;10.18;;;4.58;;
20229;SDS011;12195;55.790;37.572;2023-03-11T08:59:33;16.93;;;5.45;;
20229;SDS011;12195;55.790;37.572;2023-03-11T09:02:08;23.87;;;5.22;;
20229;SDS011;12195;55.790;37.572;2023-03-11T09:04:41;21.55;;;4.85;;
20229;SDS011;12195;55.790;37.572;2023-03-11T09:07:13;12.35;;;4.65;;
20229;SDS011;12195;55.790;37.572;2023-03-11T09:09:45;30.70;;;6.30;;
20229;SDS011;12195;55.790;37.572;2023-03-11T09:12:17;17.30;;;5.87;;
20229;SDS011;12195;55.790;37.572;2023-03-11T09:14:49;20.80;;;7.40;;
20229;SDS011;12195;55.790;37.572;2023-03-11T09:17:23;10.32;;;3.10;;
20229;SDS011;12195;55.790;37.572;2023-03-11T09:19:56;11.65;;;4.53;;
20229;SDS011;12195;55.790;37.572;2023-03-11T09:22:29;15.10;;;5.28;;
20229;SDS011;12195;55.790;37.572;2023-03-11T09:25:01;20.72;;;5.58;;
20229;SDS011;12195;55.790;37.572;2023-03-11T09:27:34;9.68;;;4.37;;
20229;SDS011;12195;55.790;37.572;2023-03-11T09:30:07;11.97;;;4.50;;
20229;SDS011;12195;55.790;37.572;2023-03-11T09:35:13;14.75;;;4.60;;
20229;SDS011;12195;55.790;37.572;2023-03-11T09:37:45;12.90;;;4.72;;
20229;SDS011;12195;55.790;37.572;2023-03-11T09:40:23;10.20;;;4.30;;
20229;SDS011;12195;55.790;37.572;2023-03-11T09:43:05;10.08;;;3.83;;
20229;SDS011;12195;55.790;37.572;2023-03-11T09:45:40;9.40;;;4.72;;
20229;SDS011;12195;55.790;37.572;2023-03-11T09:48:31;7.47;;;3.75;;
20229;SDS011;12195;55.790;37.572;2023-03-11T09:51:14;11.48;;;4.62;;
20229;SDS011;12195;55.790;37.572;2023-03-11T09:53:49;19.55;;;6.20;;
20229;SDS011;12195;55.790;37.572;2023-03-11T09:56:23;8.25;;;4.72;;
20229;SDS011;12195;55.790;37.572;2023-03-11T09:58:59;18.17;;;6.00;;
20229;SDS011;12195;55.790;37.572;2023-03-11T10:01:39;10.88;;;6.33;;
20229;SDS011;12195;55.790;37.572;2023-03-11T10:04:20;11.70;;;6.97;;
20229;SDS011;12195;55.790;37.572;2023-03-11T10:06:56;7.78;;;4.97;;
20229;SDS011;12195;55.790;37.572;2023-03-11T10:09:34;10.55;;;6.20;;
20229;SDS011;12195;55.790;37.572;2023-03-11T10:12:11;10.58;;;6.00;;
20229;SDS011;12195;55.790;37.572;2023-03-11T10:15:07;14.20;;;6.95;;
20229;SDS011;12195;55.790;37.572;2023-03-11T10:17:56;10.10;;;5.72;;
20229;SDS011;12195;55.790;37.572;2023-03-11T10:20:49;16.57;;;5.80;;
20229;SDS011;12195;55.790;37.572;2023-03-11T10:28:59;8.85;;;4.30;;
20229;SDS011;12195;55.790;37.572;2023-03-11T10:31:36;6.90;;;4.40;;
20229;SDS011;12195;55.790;37.572;2023-03-11T10:34:23;14.90;;;5.60;;
20229;SDS011;12195;55.790;37.572;2023-03-11T10:36:56;9.65;;;5.17;;
20229;SDS011;12195;55.790;37.572;2023-03-11T10:39:31;10.20;;;4.80;;
20229;SDS011;12195;55.790;37.572;2023-03-11T10:42:04;11.80;;;4.73;;
20229;SDS011;12195;55.790;37.572;2023-03-11T10:44:40;9.58;;;4.85;;
20229;SDS011;12195;55.790;37.572;2023-03-11T10:47:19;6.35;;;4.08;;
20229;SDS011;12195;55.790;37.572;2023-03-11T10:49:48;8.70;;;4.15;;
20229;SDS011;12195;55.790;37.572;2023-03-11T10:52:24;10.98;;;5.00;;
20229;SDS011;12195;55.790;37.572;2023-03-11T10:55:00;16.17;;;3.15;;
20229;SDS011;12195;55.790;37.572;2023-03-11T10:57:35;15.08;;;6.40;;
20229;SDS011;12195;55.790;37.572;2023-03-11T11:00:10;6.28;;;4.15;;
20229;SDS011;12195;55.790;37.572;2023-03-11T11:02:50;9.65;;;4.90;;
20229;SDS011;12195;55.790;37.572;2023-03-11T11:05:30;14.80;;;7.00;;
20229;SDS011;12195;55.790;37.572;2023-03-11T11:10:49;10.58;;;5.60;;
20229;SDS011;12195;55.790;37.572;2023-03-11T11:13:23;9.88;;;6.00;;
20229;SDS011;12195;55.790;37.572;2023-03-11T11:21:42;14.15;;;6.60;;
20229;SDS011;12195;55.790;37.572;2023-03-11T11:24:20;11.65;;;6.12;;
20229;SDS011;12195;55.790;37.572;2023-03-11T11:27:03;6.12;;;3.87;;
20229;SDS011;12195;55.790;37.572;2023-03-11T11:29:37;13.88;;;6.33;;
20229;SDS011;12195;55.790;37.572;2023-03-11T11:32:25;12.65;;;6.00;;
20229;SDS011;12195;55.790;37.572;2023-03-11T11:34:59;9.38;;;6.45;;
20229;SDS011;12195;55.790;37.572;2023-03-11T11:37:39;12.58;;;6.58;;
20229;SDS011;12195;55.790;37.572;2023-03-11T11:51:19;20.05;;;5.92;;
20229;SDS011;12195;55.790;37.572;2023-03-11T11:54:00;8.70;;;4.83;;
20229;SDS011;12195;55.790;37.572;2023-03-11T11:56:36;12.40;;;6.33;;
20229;SDS011;12195;55.790;37.572;2023-03-11T11:59:19;11.03;;;6.05;;
20229;SDS011;12195;55.790;37.572;2023-03-11T12:05:15;17.20;;;6.45;;
20229;SDS011;12195;55.790;37.572;2023-03-11T12:08:07;18.87;;;7.33;;
20229;SDS011;12195;55.790;37.572;2023-03-11T12:11:10;19.27;;;6.87;;
20229;SDS011;12195;55.790;37.572;2023-03-11T12:14:05;14.15;;;7.58;;
20229;SDS011;12195;55.790;37.572;2023-03-11T12:16:42;13.25;;;7.35;;
20229;SDS011;12195;55.790;37.572;2023-03-11T12:19:49;13.75;;;7.78;;
20229;SDS011;12195;55.790;37.572;2023-03-11T12:25:32;19.35;;;8.68;;
20229;SDS011;12195;55.790;37.572;2023-03-11T12:30:56;24.05;;;8.68;;
20229;SDS011;12195;55.790;37.572;2023-03-11T12:33:32;8.70;;;6.47;;
20229;SDS011;12195;55.790;37.572;2023-03-11T12:36:06;15.70;;;8.08;;
20229;SDS011;12195;55.790;37.572;2023-03-11T12:38:56;12.23;;;4.58;;
20229;SDS011;12195;55.790;37.572;2023-03-11T12:41:38;18.23;;;8.30;;
20229;SDS011;12195;55.790;37.572;2023-03-11T12:44:22;15.48;;;7.08;;
20229;SDS011;12195;55.790;37.572;2023-03-11T12:49:32;11.53;;;4.15;;
20229;SDS011;12195;55.790;37.572;2023-03-11T12:57:33;10.13;;;5.85;;
20229;SDS011;12195;55.790;37.572;2023-03-11T13:05:47;16.50;;;7.60;;
20229;SDS011;12195;55.790;37.572;2023-03-11T13:08:24;20.02;;;8.00;;
20229;SDS011;12195;55.790;37.572;2023-03-11T13:11:25;9.38;;;5.28;;
20229;SDS011;12195;55.790;37.572;2023-03-11T13:16:50;14.65;;;5.80;;
20229;SDS011;12195;55.790;37.572;2023-03-11T13:22:08;11.93;;;5.12;;
20229;SDS011;12195;55.790;37.572;2023-03-11T13:24:47;14.18;;;6.97;;
20229;SDS011;12195;55.790;37.572;2023-03-11T13:27:26;20.45;;;7.67;;
20229;SDS011;12195;55.790;37.572;2023-03-11T13:30:11;11.35;;;6.17;;
20229;SDS011;12195;55.790;37.572;2023-03-11T13:32:58;16.02;;;6.03;;
20229;SDS011;12195;55.790;37.572;2023-03-11T13:38:12;13.30;;;6.60;;
20229;SDS011;12195;55.790;37.572;2023-03-11T13:40:51;13.10;;;4.80;;
20229;SDS011;12195;55.790;37.572;2023-03-11T13:43:24;21.23;;;7.10;;
20229;SDS011;12195;55.790;37.572;2023-03-11T13:46:00;16.10;;;7.28;;
20229;SDS011;12195;55.790;37.572;2023-03-11T13:48:37;14.05;;;5.45;;
20229;SDS011;12195;55.790;37.572;2023-03-11T13:51:26;14.33;;;5.67;;
20229;SDS011;12195;55.790;37.572;2023-03-11T13:54:04;25.17;;;6.58;;
20229;SDS011;12195;55.790;37.572;2023-03-11T13:56:42;15.90;;;6.83;;
20229;SDS011;12195;55.790;37.572;2023-03-11T13:59:15;17.15;;;6.35;;
20229;SDS011;12195;55.790;37.572;2023-03-11T14:01:50;7.67;;;4.05;;
20229;SDS011;12195;55.790;37.572;2023-03-11T14:06:59;13.75;;;6.65;;
20229;SDS011;12195;55.790;37.572;2023-03-11T14:12:04;8.98;;;4.60;;
20229;SDS011;12195;55.790;37.572;2023-03-11T14:14:41;12.53;;;6.85;;
20229;SDS011;12195;55.790;37.572;2023-03-11T14:17:29;13.45;;;7.47;;
20229;SDS011;12195;55.790;37.572;2023-03-11T14:20:03;14.03;;;6.92;;
20229;SDS011;12195;55.790;37.572;2023-03-11T14:22:39;18.17;;;7.42;;
20229;SDS011;12195;55.790;37.572;2023-03-11T14:25:27;14.85;;;6.22;;
20229;SDS011;12195;55.790;37.572;2023-03-11T14:28:01;18.62;;;7.78;;
20229;SDS011;12195;55.790;37.572;2023-03-11T14:30:34;20.25;;;7.42;;
20229;SDS011;12195;55.790;37.572;2023-03-11T14:33:19;17.52;;;7.20;;
20229;SDS011;12195;55.790;37.572;2023-03-11T14:35:55;11.30;;;5.92;;
20229;SDS011;12195;55.790;37.572;2023-03-11T14:38:32;28.30;;;7.78;;
20229;SDS011;12195;55.790;37.572;2023-03-11T14:41:04;18.15;;;8.40;;
20229;SDS011;12195;55.790;37.572;2023-03-11T14:43:38;37.50;;;9.33;;
20229;SDS011;12195;55.790;37.572;2023-03-11T14:46:21;17.52;;;7.37;;
20229;SDS011;12195;55.790;37.572;2023-03-11T14:48:54;19.15;;;8.20;;
20229;SDS011;12195;55.790;37.572;2023-03-11T14:51:30;36.93;;;8.53;;
20229;SDS011;12195;55.790;37.572;2023-03-11T14:56:47;19.80;;;7.00;;
20229;SDS011;12195;55.790;37.572;2023-03-11T14:59:24;18.92;;;7.95;;
20229;SDS011;12195;55.790;37.572;2023-03-11T15:01:58;25.52;;;7.45;;
20229;SDS011;12195;55.790;37.572;2023-03-11T15:04:36;13.13;;;6.12;;
20229;SDS011;12195;55.790;37.572;2023-03-11T15:07:12;20.57;;;7.25;;
20229;SDS011;12195;55.790;37.572;2023-03-11T15:09:45;22.98;;;6.95;;
20229;SDS011;12195;55.790;37.572;2023-03-11T15:12:39;18.57;;;6.78;;
20229;SDS011;12195;55.790;37.572;2023-03-11T15:15:22;19.05;;;5.72;;
20229;SDS011;12195;55.790;37.572;2023-03-11T15:18:00;12.98;;;4.83;;
20229;SDS011;12195;55.790;37.572;2023-03-11T15:20:34;9.50;;;5.95;;
20229;SDS011;12195;55.790;37.572;2023-03-11T15:23:15;14.78;;;7.35;;
20229;SDS011;12195;55.790;37.572;2023-03-11T15:25:46;12.68;;;5.53;;
20229;SDS011;12195;55.790;37.572;2023-03-11T15:28:29;10.68;;;5.55;;
20229;SDS011;12195;55.790;37.572;2023-03-11T15:36:43;10.15;;;4.03;;
20229;SDS011;12195;55.790;37.572;2023-03-11T15:39:18;9.38;;;4.95;;
20229;SDS011;12195;55.790;37.572;2023-03-11T15:47:43;14.95;;;7.25;;
20229;SDS011;12195;55.790;37.572;2023-03-11T15:50:24;14.23;;;5.53;;
20229;SDS011;12195;55.790;37.572;2023-03-11T15:52:59;18.07;;;7.50;;
20229;SDS011;12195;55.790;37.572;2023-03-11T15:55:32;16.48;;;7.42;;
20229;SDS011;12195;55.790;37.572;2023-03-11T15:58:05;16.97;;;7.10;;
20229;SDS011;12195;55.790;37.572;2023-03-11T16:00:39;21.57;;;6.95;;
20229;SDS011;12195;55.790;37.572;2023-03-11T16:03:14;16.45;;;6.95;;
20229;SDS011;12195;55.790;37.572;2023-03-11T16:05:46;19.60;;;6.62;;
20229;SDS011;12195;55.790;37.572;2023-03-11T16:08:18;19.05;;;7.00;;
20229;SDS011;12195;55.790;37.572;2023-03-11T16:10:50;19.92;;;7.30;;
20229;SDS011;12195;55.790;37.572;2023-03-11T16:13:23;12.13;;;5.33;;
20229;SDS011;12195;55.790;37.572;2023-03-11T16:15:55;22.77;;;7.58;;
20229;SDS011;12195;55.790;37.572;2023-03-11T16:18:27;18.75;;;7.42;;
20229;SDS011;12195;55.790;37.572;2023-03-11T16:21:00;27.17;;;6.33;;
20229;SDS011;12195;55.790;37.572;2023-03-11T16:23:35;19.07;;;6.92;;
20229;SDS011;12195;55.790;37.572;2023-03-11T16:26:10;17.92;;;7.20;;
20229;SDS011;12195;55.790;37.572;2023-03-11T16:28:44;16.60;;;6.05;;
20229;SDS011;12195;55.790;37.572;2023-03-11T16:31:17;8.85;;;4.87;;
20229;SDS011;12195;55.790;37.572;2023-03-11T16:33:49;16.55;;;8.68;;
20229;SDS011;12195;55.790;37.572;2023-03-11T16:36:21;11.85;;;7.20;;
20229;SDS011;12195;55.790;37.572;2023-03-11T16:38:53;13.83;;;7.42;;
20229;SDS011;12195;55.790;37.572;2023-03-11T16:41:26;20.77;;;7.55;;
20229;SDS011;12195;55.790;37.572;2023-03-11T16:43:58;13.10;;;5.80;;
20229;SDS011;12195;55.790;37.572;2023-03-11T16:46:32;16.25;;;7.40;;
20229;SDS011;12195;55.790;37.572;2023-03-11T16:49:05;14.33;;;5.05;;
20229;SDS011;12195;55.790;37.572;2023-03-11T16:51:38;17.62;;;7.65;;